createdAt,value
2023-01-30T00:00:05.281Z,1001.81
2023-01-30T00:01:05.308Z,1001.99
2023-01-30T00:02:05.285Z,1001.88
2023-01-30T00:03:05.247Z,1001.85
2023-01-30T00:04:05.196Z,1001.90
2023-01-30T00:05:05.236Z,1001.93
2023-01-30T00:06:05.156Z,1002.01
2023-01-30T00:07:05.162Z,1001.97
2023-01-30T00:08:05.107Z,1002.10
2023-01-30T00:09:05.093Z,1002.08
2023-01-30T00:10:05.065Z,1002.04
2023-01-30T00:11:05.059Z,1002.03
2023-01-30T00:12:05.065Z,1002.01
2023-01-30T00:13:05.003Z,1001.92
2023-01-30T00:14:04.994Z,1001.99
2023-01-30T00:15:05.027Z,1001.86
2023-01-30T00:16:05.108Z,1001.87
2023-01-30T00:17:04.919Z,1001.83
2023-01-30T00:18:04.934Z,1001.73
2023-01-30T00:19:04.870Z,1001.72
2023-01-30T00:20:04.845Z,1001.79
2023-01-30T00:21:04.834Z,1001.79
2023-01-30T00:22:04.858Z,1001.77
2023-01-30T00:23:04.820Z,1001.80
2023-01-30T00:24:04.782Z,1001.79
2023-01-30T00:25:04.931Z,1001.82
2023-01-30T00:26:04.725Z,1001.89
2023-01-30T00:27:04.697Z,1001.85
2023-01-30T00:28:04.676Z,1001.89
2023-01-30T00:29:04.663Z,1001.91
2023-01-30T00:30:04.637Z,1001.90
2023-01-30T00:31:04.641Z,1001.95
2023-01-30T00:32:04.616Z,1001.92
2023-01-30T00:33:04.568Z,1001.99
2023-01-30T00:34:04.667Z,1001.78
2023-01-30T00:35:04.525Z,1001.86
2023-01-30T00:36:04.508Z,1001.80
2023-01-30T00:38:04.465Z,1001.69
2023-01-30T00:39:04.471Z,1001.65
2023-01-30T00:40:04.484Z,1001.57
2023-01-30T00:41:04.395Z,1001.64
2023-01-30T00:42:04.385Z,1001.65
2023-01-30T00:43:04.346Z,1001.64
2023-01-30T00:44:04.355Z,1001.59
2023-01-30T00:45:04.342Z,1001.54
2023-01-30T00:46:04.339Z,1001.53
2023-01-30T00:47:04.265Z,1001.55
2023-01-30T00:48:04.251Z,1001.51
2023-01-30T00:49:04.305Z,1001.52
2023-01-30T00:50:04.235Z,1001.53
2023-01-30T00:51:04.195Z,1001.48
2023-01-30T00:52:04.193Z,1001.44
2023-01-30T00:53:04.138Z,1001.42
2023-01-30T00:54:04.150Z,1001.48
2023-01-30T00:55:04.133Z,1001.45
2023-01-30T00:56:04.084Z,1001.37
2023-01-30T00:57:04.050Z,1001.41
2023-01-30T00:58:04.029Z,1001.44
2023-01-30T00:59:04.024Z,1001.40
2023-01-30T01:00:04.010Z,1001.46
2023-01-30T01:01:03.968Z,1001.42
2023-01-30T01:02:04.058Z,1001.38
2023-01-30T01:03:03.958Z,1001.27
2023-01-30T01:04:03.911Z,1001.30
2023-01-30T01:05:03.908Z,1001.18
2023-01-30T01:06:03.884Z,1001.21
2023-01-30T01:07:03.837Z,1001.18
2023-01-30T01:08:03.816Z,1001.08
2023-01-30T01:09:03.822Z,1001.05
2023-01-30T01:10:03.785Z,1000.96
2023-01-30T01:11:03.753Z,1001.05
2023-01-30T01:12:03.818Z,1000.97
2023-01-30T01:13:03.708Z,1000.90
2023-01-30T01:14:03.691Z,1000.86
2023-01-30T01:15:03.671Z,1000.91
2023-01-30T01:16:03.689Z,1000.88
2023-01-30T01:17:03.623Z,1000.80
2023-01-30T01:18:03.614Z,1000.79
2023-01-30T01:19:03.580Z,1000.71
2023-01-30T01:20:03.558Z,1000.80
2023-01-30T01:21:03.542Z,1000.74
2023-01-30T01:22:03.553Z,1000.79
2023-01-30T01:23:03.567Z,1000.71
2023-01-30T01:24:03.486Z,1000.69
2023-01-30T01:25:03.607Z,1000.64
2023-01-30T01:26:03.431Z,1000.57
2023-01-30T01:27:03.441Z,1000.61
2023-01-30T01:28:03.396Z,1000.66
2023-01-30T01:29:03.409Z,1000.62
2023-01-30T01:30:03.346Z,1000.56
2023-01-30T01:31:03.338Z,1000.62
2023-01-30T01:32:03.340Z,1000.51
2023-01-30T01:33:03.280Z,1000.48
2023-01-30T01:34:03.260Z,1000.46
2023-01-30T01:35:03.238Z,1000.41
2023-01-30T01:36:04.727Z,1000.33
2023-01-30T01:37:03.304Z,1000.41
2023-01-30T01:38:03.203Z,1000.39
2023-01-30T01:39:03.158Z,1000.42
2023-01-30T01:40:03.138Z,1000.40
2023-01-30T01:41:03.114Z,1000.38
2023-01-30T01:42:03.094Z,1000.37
2023-01-30T01:43:03.088Z,1000.35
2023-01-30T01:44:03.074Z,1000.36
2023-01-30T01:45:03.032Z,1000.29
2023-01-30T01:46:03.053Z,1000.19
2023-01-30T01:47:02.978Z,1000.26
2023-01-30T01:48:02.971Z,1000.25
2023-01-30T01:49:02.937Z,1000.36
2023-01-30T01:50:02.924Z,1000.31
2023-01-30T01:51:02.903Z,1000.27
2023-01-30T01:52:02.907Z,1000.30
2023-01-30T01:53:02.936Z,1000.35
2023-01-30T01:54:02.837Z,1000.09
2023-01-30T01:55:02.809Z,1000.05
2023-01-30T01:56:02.808Z,1000.18
2023-01-30T01:57:02.795Z,1000.15
2023-01-30T01:58:02.743Z,1000.02
2023-01-30T01:59:02.729Z,1000.00
2023-01-30T02:00:02.731Z,999.93
2023-01-30T02:01:02.727Z,1000.01
2023-01-30T02:02:02.743Z,999.98
2023-01-30T02:03:02.678Z,999.88
2023-01-30T02:04:02.615Z,999.98
2023-01-30T02:05:02.655Z,999.91
2023-01-30T02:06:02.581Z,999.96
2023-01-30T02:07:02.555Z,999.93
2023-01-30T02:08:02.530Z,999.99
2023-01-30T02:09:02.575Z,999.84
2023-01-30T02:10:02.518Z,999.88
2023-01-30T02:11:02.471Z,999.85
2023-01-30T02:12:02.467Z,999.80
2023-01-30T02:13:02.425Z,999.85
2023-01-30T02:14:02.402Z,999.58
2023-01-30T02:15:02.436Z,999.69
2023-01-30T02:16:02.370Z,999.66
2023-01-30T02:17:02.397Z,999.61
2023-01-30T02:18:02.341Z,999.60
2023-01-30T02:19:02.300Z,999.62
2023-01-30T02:20:02.277Z,999.68
2023-01-30T02:21:02.263Z,999.67
2023-01-30T02:22:02.255Z,999.50
2023-01-30T02:23:02.221Z,999.70
2023-01-30T02:24:02.254Z,999.69
2023-01-30T02:25:02.185Z,999.71
2023-01-30T02:26:02.168Z,999.53
2023-01-30T02:27:02.125Z,999.53
2023-01-30T02:28:02.106Z,999.59
2023-01-30T02:29:02.084Z,999.53
2023-01-30T02:30:02.137Z,999.49
2023-01-30T02:31:02.073Z,999.57
2023-01-30T02:32:02.041Z,999.47
2023-01-30T02:33:01.996Z,999.39
2023-01-30T02:34:01.977Z,999.39
2023-01-30T02:35:01.994Z,999.36
2023-01-30T02:36:01.948Z,999.37
2023-01-30T02:37:01.911Z,999.30
2023-01-30T02:38:01.906Z,999.29
2023-01-30T02:39:01.860Z,999.24
2023-01-30T02:40:01.847Z,999.29
2023-01-30T02:41:01.825Z,999.25
2023-01-30T02:42:01.810Z,999.17
2023-01-30T02:43:01.793Z,999.08
2023-01-30T02:44:01.759Z,999.20
2023-01-30T02:45:01.748Z,999.16
2023-01-30T02:46:01.752Z,999.18
2023-01-30T02:47:01.701Z,999.15
2023-01-30T02:48:01.679Z,999.13
2023-01-30T02:49:01.658Z,999.14
2023-01-30T02:50:01.632Z,999.06
2023-01-30T02:51:01.622Z,998.86
2023-01-30T02:52:01.598Z,998.91
2023-01-30T02:53:01.604Z,998.85
2023-01-30T02:54:01.562Z,998.84
2023-01-30T02:55:01.527Z,998.82
2023-01-30T02:56:01.515Z,998.86
2023-01-30T02:57:01.484Z,998.78
2023-01-30T02:58:01.466Z,998.75
2023-01-30T02:59:01.439Z,998.77
2023-01-30T03:00:01.428Z,998.72
2023-01-30T03:01:01.437Z,998.71
2023-01-30T03:02:01.375Z,998.76
2023-01-30T03:03:01.409Z,998.79
2023-01-30T03:04:01.336Z,998.84
2023-01-30T03:05:01.312Z,998.88
2023-01-30T03:06:01.334Z,998.86
2023-01-30T03:07:01.306Z,998.84
2023-01-30T03:08:01.280Z,998.78
2023-01-30T03:09:01.223Z,998.99
2023-01-30T03:10:01.221Z,998.79
2023-01-30T03:11:01.180Z,998.87
2023-01-30T03:12:01.163Z,998.83
2023-01-30T03:13:01.169Z,998.65
2023-01-30T03:14:01.138Z,998.73
2023-01-30T03:15:01.098Z,998.73
2023-01-30T03:16:01.125Z,998.74
2023-01-30T03:17:01.053Z,998.74
2023-01-30T03:18:01.118Z,998.66
2023-01-30T03:19:01.029Z,998.61
2023-01-30T03:20:00.996Z,998.67
2023-01-30T03:21:00.995Z,998.51
2023-01-30T03:22:00.975Z,998.54
2023-01-30T03:23:00.979Z,998.40
2023-01-30T03:24:00.901Z,998.51
2023-01-30T03:25:00.888Z,998.47
2023-01-30T03:26:00.860Z,998.55
2023-01-30T03:27:00.900Z,998.48
2023-01-30T03:28:00.854Z,998.39
2023-01-30T03:29:00.827Z,998.40
2023-01-30T03:30:00.810Z,998.33
2023-01-30T03:31:00.835Z,998.32
2023-01-30T03:32:00.783Z,998.29
2023-01-30T03:33:00.721Z,998.22
2023-01-30T03:34:00.718Z,998.34
2023-01-30T03:35:00.707Z,998.27
2023-01-30T03:36:00.652Z,998.21
2023-01-30T03:37:00.635Z,998.20
2023-01-30T03:38:00.606Z,998.16
2023-01-30T03:39:00.588Z,998.07
2023-01-30T03:40:00.616Z,998.26
2023-01-30T03:41:00.542Z,998.13
2023-01-30T03:42:00.528Z,998.16
2023-01-30T03:43:00.508Z,998.19
2023-01-30T03:44:00.501Z,998.11
2023-01-30T03:45:00.465Z,998.16
2023-01-30T03:46:00.487Z,998.13
2023-01-30T03:47:00.426Z,998.11
2023-01-30T03:48:00.401Z,998.15
2023-01-30T03:49:00.377Z,998.16
2023-01-30T03:50:00.358Z,998.15
2023-01-30T03:51:00.372Z,998.04
2023-01-30T03:52:00.316Z,998.05
2023-01-30T03:53:00.296Z,998.09
2023-01-30T03:54:00.272Z,998.02
2023-01-30T03:55:00.252Z,997.94
2023-01-30T03:56:00.232Z,998.08
2023-01-30T03:57:00.219Z,998.02
2023-01-30T03:58:00.188Z,998.08
2023-01-30T03:59:00.170Z,997.91
2023-01-30T04:00:00.163Z,997.96
2023-01-30T04:01:00.163Z,998.05
2023-01-30T04:02:00.109Z,997.99
2023-01-30T04:03:00.111Z,998.00
2023-01-30T04:04:00.116Z,998.05
2023-01-30T04:05:00.043Z,998.09
2023-01-30T04:06:00.024Z,998.01
2023-01-30T04:07:00.005Z,997.94
2023-01-30T04:08:00.005Z,997.90
2023-01-30T04:09:00.084Z,997.94
2023-01-30T04:09:59.971Z,997.84
2023-01-30T04:10:59.921Z,997.82
2023-01-30T04:11:59.896Z,997.85
2023-01-30T04:12:59.876Z,997.87
2023-01-30T04:13:59.866Z,997.96
2023-01-30T04:14:59.861Z,997.85
2023-01-30T04:15:59.844Z,997.82
2023-01-30T04:16:59.837Z,997.81
2023-01-30T04:17:59.776Z,997.82
2023-01-30T04:18:59.760Z,997.88
2023-01-30T04:19:59.736Z,997.94
2023-01-30T04:20:59.748Z,997.94
2023-01-30T04:21:59.699Z,997.86
2023-01-30T04:22:59.688Z,997.88
2023-01-30T04:23:59.684Z,997.90
2023-01-30T04:24:59.680Z,998.02
2023-01-30T04:25:59.615Z,997.99
2023-01-30T04:26:59.589Z,997.86
2023-01-30T04:27:59.568Z,997.92
2023-01-30T04:28:59.556Z,997.84
2023-01-30T04:29:59.579Z,997.87
2023-01-30T04:30:59.533Z,997.71
2023-01-30T04:31:59.491Z,997.82
2023-01-30T04:32:59.464Z,998.10
2023-01-30T04:33:59.451Z,997.72
2023-01-30T04:34:59.431Z,997.79
2023-01-30T04:35:59.422Z,997.88
2023-01-30T04:36:59.405Z,997.84
2023-01-30T04:37:59.365Z,997.94
2023-01-30T04:38:59.353Z,997.81
2023-01-30T04:39:59.374Z,997.74
2023-01-30T04:40:59.311Z,997.81
2023-01-30T04:41:59.309Z,997.81
2023-01-30T04:42:59.290Z,997.89
2023-01-30T04:43:59.327Z,997.81
2023-01-30T04:44:59.233Z,997.74
2023-01-30T04:45:59.196Z,997.77
2023-01-30T04:46:59.200Z,997.67
2023-01-30T04:47:59.154Z,997.64
2023-01-30T04:48:59.140Z,997.65
2023-01-30T04:49:59.172Z,997.64
2023-01-30T04:50:59.119Z,997.66
2023-01-30T04:51:59.098Z,997.69
2023-01-30T04:52:59.057Z,997.47
2023-01-30T04:53:59.040Z,997.73
2023-01-30T04:54:59.015Z,997.71
2023-01-30T04:55:59.017Z,997.60
2023-01-30T04:56:58.980Z,997.53
2023-01-30T04:57:58.951Z,997.57
2023-01-30T04:58:58.987Z,997.53
2023-01-30T04:59:58.916Z,997.56
2023-01-30T05:00:58.965Z,997.63
2023-01-30T05:01:58.989Z,997.53
2023-01-30T05:02:58.853Z,997.66
2023-01-30T05:03:58.828Z,997.41
2023-01-30T05:04:58.814Z,997.55
2023-01-30T05:05:58.786Z,997.40
2023-01-30T05:06:58.801Z,997.50
2023-01-30T05:07:58.749Z,997.53
2023-01-30T05:08:58.736Z,997.54
2023-01-30T05:09:58.716Z,997.41
2023-01-30T05:10:58.691Z,997.44
2023-01-30T05:11:58.706Z,997.45
2023-01-30T05:12:58.654Z,997.49
2023-01-30T05:13:58.627Z,997.53
2023-01-30T05:14:58.622Z,997.46
2023-01-30T05:15:58.617Z,997.45
2023-01-30T05:16:58.576Z,997.53
2023-01-30T05:17:58.571Z,997.54
2023-01-30T05:18:58.527Z,997.57
2023-01-30T05:19:58.510Z,997.49
2023-01-30T05:20:58.520Z,997.56
2023-01-30T05:21:58.465Z,997.54
2023-01-30T05:22:58.446Z,997.49
2023-01-30T05:23:58.479Z,997.57
2023-01-30T05:24:58.412Z,997.63
2023-01-30T05:25:58.385Z,997.62
2023-01-30T05:26:58.365Z,997.62
2023-01-30T05:27:58.370Z,997.61
2023-01-30T05:28:58.327Z,997.60
2023-01-30T05:29:58.302Z,997.71
2023-01-30T05:30:58.373Z,997.58
2023-01-30T05:31:58.300Z,997.61
2023-01-30T05:32:58.245Z,997.57
2023-01-30T05:33:58.222Z,997.57
2023-01-30T05:34:58.208Z,997.58
2023-01-30T05:35:58.190Z,997.61
2023-01-30T05:36:58.208Z,997.61
2023-01-30T05:37:59.497Z,997.59
2023-01-30T05:38:58.123Z,997.68
2023-01-30T05:39:58.101Z,997.70
2023-01-30T05:40:58.087Z,997.78
2023-01-30T05:41:58.072Z,997.68
2023-01-30T05:42:58.047Z,997.76
2023-01-30T05:43:58.071Z,997.72
2023-01-30T05:44:58.003Z,997.66
2023-01-30T05:45:57.980Z,997.79
2023-01-30T05:46:58.032Z,997.77
2023-01-30T05:48:01.292Z,997.74
2023-01-30T05:48:57.947Z,997.54
2023-01-30T05:49:57.900Z,997.69
2023-01-30T05:50:57.895Z,997.66
2023-01-30T05:51:57.890Z,997.63
2023-01-30T05:52:57.849Z,997.66
2023-01-30T05:53:57.826Z,997.79
2023-01-30T05:54:57.837Z,997.73
2023-01-30T05:55:57.784Z,997.59
2023-01-30T05:56:57.757Z,997.71
2023-01-30T05:57:57.738Z,997.69
2023-01-30T05:58:57.722Z,997.57
2023-01-30T05:59:57.696Z,997.66
2023-01-30T06:00:57.714Z,997.75
2023-01-30T06:01:57.671Z,997.69
2023-01-30T06:02:57.684Z,997.64
2023-01-30T06:03:57.734Z,997.77
2023-01-30T06:04:57.597Z,997.78
2023-01-30T06:05:57.620Z,997.67
2023-01-30T06:06:57.560Z,997.67
2023-01-30T06:07:57.531Z,997.69
2023-01-30T06:08:57.558Z,997.74
2023-01-30T06:09:57.493Z,997.71
2023-01-30T06:10:57.528Z,997.59
2023-01-30T06:11:57.454Z,997.64
2023-01-30T06:12:57.435Z,997.65
2023-01-30T06:13:57.415Z,997.68
2023-01-30T06:14:57.395Z,997.66
2023-01-30T06:15:57.411Z,997.76
2023-01-30T06:16:57.396Z,997.80
2023-01-30T06:17:57.334Z,997.82
2023-01-30T06:18:57.318Z,997.81
2023-01-30T06:19:57.292Z,997.88
2023-01-30T06:20:57.311Z,997.82
2023-01-30T06:21:57.309Z,997.86
2023-01-30T06:22:57.259Z,997.83
2023-01-30T06:23:57.212Z,997.86
2023-01-30T06:24:57.196Z,997.77
2023-01-30T06:25:57.168Z,997.86
2023-01-30T06:26:57.155Z,997.82
2023-01-30T06:27:57.198Z,997.85
2023-01-30T06:28:57.120Z,997.79
2023-01-30T06:29:57.122Z,997.87
2023-01-30T06:30:57.233Z,997.78
2023-01-30T06:31:57.053Z,997.92
2023-01-30T06:32:57.051Z,997.95
2023-01-30T06:33:57.099Z,997.94
2023-01-30T06:34:56.996Z,997.89
2023-01-30T06:35:56.981Z,997.90
2023-01-30T06:36:56.983Z,997.94
2023-01-30T06:37:56.929Z,997.98
2023-01-30T06:38:56.912Z,998.04
2023-01-30T06:39:56.912Z,997.96
2023-01-30T06:40:56.873Z,998.01
2023-01-30T06:41:56.848Z,998.03
2023-01-30T06:42:56.832Z,998.07
2023-01-30T06:43:56.824Z,998.02
2023-01-30T06:44:56.850Z,998.07
2023-01-30T06:45:56.810Z,998.10
2023-01-30T06:46:56.780Z,998.06
2023-01-30T06:47:56.724Z,998.13
2023-01-30T06:48:56.750Z,998.15
2023-01-30T06:49:56.709Z,998.08
2023-01-30T06:50:56.695Z,998.14
2023-01-30T06:51:56.646Z,998.08
2023-01-30T06:52:56.672Z,998.03
2023-01-30T06:53:56.611Z,998.08
2023-01-30T06:54:56.602Z,998.12
2023-01-30T06:55:56.658Z,998.18
2023-01-30T06:56:56.552Z,998.13
2023-01-30T06:57:56.525Z,998.18
2023-01-30T06:58:56.510Z,998.14
2023-01-30T06:59:56.485Z,998.15
2023-01-30T07:00:56.521Z,998.07
2023-01-30T07:01:56.608Z,998.18
2023-01-30T07:02:56.430Z,998.12
2023-01-30T07:03:56.473Z,998.03
2023-01-30T07:04:56.387Z,998.14
2023-01-30T07:05:56.371Z,998.16
2023-01-30T07:06:56.347Z,998.09
2023-01-30T07:07:56.350Z,998.05
2023-01-30T07:08:56.309Z,997.98
2023-01-30T07:10:07.228Z,998.07
2023-01-30T07:10:56.393Z,997.98
2023-01-30T07:11:56.287Z,998.10
2023-01-30T07:12:56.228Z,997.99
2023-01-30T07:13:56.288Z,998.03
2023-01-30T07:14:56.197Z,997.97
2023-01-30T07:15:56.165Z,998.05
2023-01-30T07:16:56.239Z,998.03
2023-01-30T07:17:56.158Z,998.02
2023-01-30T07:18:56.154Z,998.09
2023-01-30T07:19:56.152Z,997.88
2023-01-30T07:20:56.081Z,998.08
2023-01-30T07:21:56.054Z,998.05
2023-01-30T07:22:56.068Z,997.97
2023-01-30T07:23:56.009Z,997.91
2023-01-30T07:24:55.987Z,998.07
2023-01-30T07:25:55.969Z,998.01
2023-01-30T07:26:55.961Z,998.01
2023-01-30T07:27:55.959Z,998.12
2023-01-30T07:28:55.904Z,998.05
2023-01-30T07:29:55.905Z,997.98
2023-01-30T07:30:55.912Z,998.20
2023-01-30T07:31:55.899Z,998.19
2023-01-30T07:32:55.826Z,998.17
2023-01-30T07:33:55.830Z,998.10
2023-01-30T07:34:55.803Z,998.09
2023-01-30T07:35:55.779Z,998.20
2023-01-30T07:36:55.767Z,997.92
2023-01-30T07:37:55.725Z,998.12
2023-01-30T07:38:55.762Z,998.13
2023-01-30T07:39:55.689Z,998.14
2023-01-30T07:40:55.750Z,998.12
2023-01-30T07:41:57.006Z,998.09
2023-01-30T07:42:55.619Z,998.05
2023-01-30T07:43:55.625Z,998.19
2023-01-30T07:44:55.590Z,998.12
2023-01-30T07:45:55.564Z,998.16
2023-01-30T07:46:55.593Z,998.07
2023-01-30T07:47:55.523Z,998.21
2023-01-30T07:48:55.504Z,998.23
2023-01-30T07:49:55.549Z,998.22
2023-01-30T07:50:55.484Z,998.29
2023-01-30T07:51:55.506Z,998.22
2023-01-30T07:52:55.483Z,998.38
2023-01-30T07:53:55.509Z,998.42
2023-01-30T07:54:55.667Z,998.29
2023-01-30T07:55:55.357Z,998.39
2023-01-30T07:56:55.541Z,998.33
2023-01-30T07:57:55.379Z,998.25
2023-01-30T07:58:55.299Z,998.35
2023-01-30T07:59:55.287Z,998.43
2023-01-30T08:00:55.343Z,998.28
2023-01-30T08:01:55.262Z,998.27
2023-01-30T08:02:55.241Z,998.34
2023-01-30T08:03:55.196Z,998.40
2023-01-30T08:04:55.237Z,998.36
2023-01-30T08:05:55.154Z,998.40
2023-01-30T08:06:55.140Z,998.39
2023-01-30T08:07:55.141Z,998.32
2023-01-30T08:08:55.097Z,998.28
2023-01-30T08:09:55.084Z,998.29
2023-01-30T08:10:55.089Z,998.31
2023-01-30T08:11:55.071Z,998.33
2023-01-30T08:12:55.016Z,998.34
2023-01-30T08:13:55.033Z,998.35
2023-01-30T08:14:54.984Z,998.27
2023-01-30T08:15:54.992Z,998.43
2023-01-30T08:16:54.961Z,998.40
2023-01-30T08:17:54.936Z,998.32
2023-01-30T08:18:54.893Z,998.31
2023-01-30T08:19:54.869Z,998.35
2023-01-30T08:20:54.852Z,998.25
2023-01-30T08:21:54.832Z,998.20
2023-01-30T08:22:54.810Z,998.21
2023-01-30T08:23:54.789Z,998.32
2023-01-30T08:24:54.769Z,998.26
2023-01-30T08:25:54.758Z,998.18
2023-01-30T08:26:54.766Z,998.43
2023-01-30T08:27:54.705Z,998.37
2023-01-30T08:28:54.692Z,998.31
2023-01-30T08:29:54.674Z,998.38
2023-01-30T08:30:54.786Z,998.29
2023-01-30T08:31:54.654Z,998.25
2023-01-30T08:32:54.654Z,998.27
2023-01-30T08:33:54.602Z,998.45
2023-01-30T08:34:54.571Z,998.48
2023-01-30T08:35:54.545Z,998.39
2023-01-30T08:36:54.529Z,998.33
2023-01-30T08:37:54.513Z,998.28
2023-01-30T08:38:54.496Z,998.30
2023-01-30T08:39:54.479Z,998.51
2023-01-30T08:40:54.447Z,998.32
2023-01-30T08:41:54.425Z,998.50
2023-01-30T08:42:54.411Z,998.33
2023-01-30T08:43:54.416Z,998.35
2023-01-30T08:44:54.370Z,998.60
2023-01-30T08:45:54.350Z,998.24
2023-01-30T08:46:54.330Z,998.49
2023-01-30T08:47:54.304Z,998.28
2023-01-30T08:48:54.359Z,998.51
2023-01-30T08:49:54.286Z,998.57
2023-01-30T08:50:54.247Z,998.57
2023-01-30T08:51:54.235Z,998.41
2023-01-30T08:52:54.206Z,998.42
2023-01-30T08:53:54.212Z,998.50
2023-01-30T08:54:54.197Z,998.57
2023-01-30T08:55:54.162Z,998.51
2023-01-30T08:56:54.131Z,998.57
2023-01-30T08:57:54.127Z,998.53
2023-01-30T08:58:54.112Z,998.56
2023-01-30T08:59:54.100Z,998.46
2023-01-30T09:00:54.088Z,998.56
2023-01-30T09:01:54.027Z,998.59
2023-01-30T09:02:54.015Z,998.42
2023-01-30T09:03:53.988Z,998.36
2023-01-30T09:04:54.007Z,998.26
2023-01-30T09:05:53.942Z,998.43
2023-01-30T09:06:53.935Z,998.56
2023-01-30T09:07:53.931Z,998.42
2023-01-30T09:08:53.878Z,998.46
2023-01-30T09:09:53.860Z,998.41
2023-01-30T09:10:53.840Z,998.46
2023-01-30T09:11:53.852Z,998.26
2023-01-30T09:12:53.837Z,998.53
2023-01-30T09:13:53.788Z,998.50
2023-01-30T09:14:53.762Z,998.45
2023-01-30T09:15:53.736Z,998.53
2023-01-30T09:16:53.896Z,998.49
2023-01-30T09:17:53.731Z,998.53
2023-01-30T09:18:53.711Z,998.31
2023-01-30T09:19:53.662Z,998.39
2023-01-30T09:20:53.944Z,998.34
2023-01-30T09:21:53.621Z,998.43
2023-01-30T09:22:53.648Z,998.52
2023-01-30T09:23:53.580Z,998.46
2023-01-30T09:24:53.570Z,998.26
2023-01-30T09:25:53.543Z,998.57
2023-01-30T09:26:53.529Z,998.15
2023-01-30T09:27:53.500Z,998.37
2023-01-30T09:28:53.496Z,998.47
2023-01-30T09:29:53.618Z,998.22
2023-01-30T09:30:53.589Z,998.61
2023-01-30T09:31:53.494Z,998.46
2023-01-30T09:32:53.418Z,998.27
2023-01-30T09:33:53.393Z,998.65
2023-01-30T09:34:53.361Z,998.51
2023-01-30T09:35:53.407Z,998.57
2023-01-30T09:36:53.488Z,998.57
2023-01-30T09:37:53.399Z,998.53
2023-01-30T09:38:53.336Z,998.61
2023-01-30T09:39:53.260Z,998.61
2023-01-30T09:40:53.251Z,998.25
2023-01-30T09:41:53.253Z,998.72
2023-01-30T09:42:53.223Z,998.56
2023-01-30T09:43:53.222Z,998.46
2023-01-30T09:44:53.159Z,998.65
2023-01-30T09:45:53.180Z,998.60
2023-01-30T09:46:53.256Z,998.39
2023-01-30T09:47:53.221Z,998.64
2023-01-30T09:48:53.081Z,998.61
2023-01-30T09:49:53.060Z,998.56
2023-01-30T09:50:53.041Z,998.54
2023-01-30T09:51:53.091Z,998.65
2023-01-30T09:52:53.003Z,998.49
2023-01-30T09:53:52.985Z,998.48
2023-01-30T09:54:52.966Z,998.40
2023-01-30T09:55:52.941Z,998.58
2023-01-30T09:56:52.932Z,998.64
2023-01-30T09:57:52.950Z,998.79
2023-01-30T09:58:52.884Z,998.63
2023-01-30T09:59:52.865Z,998.48
2023-01-30T10:00:52.837Z,998.55
2023-01-30T10:01:52.850Z,998.16
2023-01-30T10:02:52.822Z,998.67
2023-01-30T10:03:52.835Z,998.58
2023-01-30T10:05:01.356Z,998.61
2023-01-30T10:05:52.758Z,998.66
2023-01-30T10:06:52.911Z,998.60
2023-01-30T10:07:52.771Z,998.72
2023-01-30T10:08:52.678Z,998.61
2023-01-30T10:09:52.721Z,998.69
2023-01-30T10:11:04.348Z,998.13
2023-01-30T10:11:52.627Z,998.45
2023-01-30T10:12:52.601Z,998.47
2023-01-30T10:13:52.607Z,998.50
2023-01-30T10:14:52.567Z,998.45
2023-01-30T10:15:52.703Z,998.63
2023-01-30T10:16:52.525Z,998.34
2023-01-30T10:17:52.575Z,998.64
2023-01-30T10:18:52.510Z,998.70
2023-01-30T10:19:52.492Z,998.66
2023-01-30T10:20:52.440Z,998.69
2023-01-30T10:21:52.888Z,998.61
2023-01-30T10:22:52.410Z,998.36
2023-01-30T10:23:52.395Z,998.33
2023-01-30T10:24:52.357Z,998.35
2023-01-30T10:25:52.397Z,998.73
2023-01-30T10:26:52.357Z,998.57
2023-01-30T10:27:52.345Z,998.60
2023-01-30T10:28:58.876Z,998.59
2023-01-30T10:29:52.273Z,998.55
2023-01-30T10:30:52.321Z,998.46
2023-01-30T10:31:52.289Z,998.52
2023-01-30T10:32:52.203Z,998.64
2023-01-30T10:33:52.196Z,998.44
2023-01-30T10:34:52.200Z,998.55
2023-01-30T10:35:52.176Z,998.49
2023-01-30T10:36:52.163Z,998.51
2023-01-30T10:37:52.100Z,998.56
2023-01-30T10:38:52.095Z,998.66
2023-01-30T10:39:55.885Z,998.68
2023-01-30T10:40:52.280Z,998.63
2023-01-30T10:41:52.023Z,998.71
2023-01-30T10:42:52.001Z,998.62
2023-01-30T10:43:51.985Z,998.64
2023-01-30T10:44:51.963Z,998.58
2023-01-30T10:45:51.974Z,998.65
2023-01-30T10:46:52.140Z,998.63
2023-01-30T10:47:51.906Z,998.69
2023-01-30T10:48:51.888Z,998.56
2023-01-30T10:49:51.867Z,998.67
2023-01-30T10:50:51.891Z,998.64
2023-01-30T10:51:51.834Z,998.13
2023-01-30T10:52:51.805Z,998.22
2023-01-30T10:53:51.795Z,998.16
2023-01-30T10:54:51.763Z,998.59
2023-01-30T10:55:51.850Z,998.48
2023-01-30T10:56:51.722Z,998.05
2023-01-30T10:57:51.717Z,998.45
2023-01-30T10:58:51.707Z,998.42
2023-01-30T10:59:51.702Z,998.46
2023-01-30T11:00:51.648Z,998.16
2023-01-30T11:01:51.652Z,998.18
2023-01-30T11:02:51.895Z,998.34
2023-01-30T11:03:51.591Z,998.12
2023-01-30T11:04:51.563Z,998.25
2023-01-30T11:05:51.545Z,998.04
2023-01-30T11:06:51.522Z,998.33
2023-01-30T11:07:51.560Z,998.23
2023-01-30T11:08:51.495Z,998.18
2023-01-30T11:09:51.465Z,998.17
2023-01-30T11:10:51.458Z,998.13
2023-01-30T11:11:51.433Z,997.99
2023-01-30T11:12:51.410Z,998.19
2023-01-30T11:13:51.468Z,998.38
2023-01-30T11:14:51.363Z,998.22
2023-01-30T11:15:51.386Z,998.26
2023-01-30T11:16:51.374Z,998.22
2023-01-30T11:17:51.381Z,998.34
2023-01-30T11:19:18.814Z,998.16
2023-01-30T11:19:51.267Z,998.00
2023-01-30T11:20:51.263Z,997.78
2023-01-30T11:21:51.243Z,998.07
2023-01-30T11:22:51.228Z,997.98
2023-01-30T11:23:51.195Z,997.94
2023-01-30T11:24:51.173Z,997.98
2023-01-30T11:25:59.250Z,998.01
2023-01-30T11:26:51.191Z,998.05
2023-01-30T11:27:51.111Z,997.88
2023-01-30T11:28:51.137Z,997.81
2023-01-30T11:29:51.081Z,997.99
2023-01-30T11:30:51.070Z,998.12
2023-01-30T11:31:51.271Z,997.96
2023-01-30T11:32:51.009Z,998.11
2023-01-30T11:33:50.996Z,998.01
2023-01-30T11:34:51.003Z,998.22
2023-01-30T11:35:50.952Z,998.03
2023-01-30T11:36:50.932Z,997.81
2023-01-30T11:37:50.911Z,998.19
2023-01-30T11:38:50.893Z,998.00
2023-01-30T11:39:50.975Z,998.25
2023-01-30T11:40:50.852Z,998.17
2023-01-30T11:41:50.831Z,998.03
2023-01-30T11:42:50.818Z,998.16
2023-01-30T11:43:50.799Z,998.12
2023-01-30T11:44:50.783Z,997.82
2023-01-30T11:45:50.874Z,998.07
2023-01-30T11:46:50.803Z,998.26
2023-01-30T11:47:57.975Z,998.12
2023-01-30T11:49:09.049Z,998.16
2023-01-30T11:50:00.716Z,998.30
2023-01-30T11:50:50.724Z,998.33
2023-01-30T11:51:50.638Z,998.35
2023-01-30T11:52:50.647Z,998.36
2023-01-30T11:53:50.598Z,998.40
2023-01-30T11:54:50.568Z,998.48
2023-01-30T11:56:03.037Z,998.53
2023-01-30T11:56:50.549Z,998.52
2023-01-30T11:57:50.541Z,998.60
2023-01-30T11:58:50.555Z,998.51
2023-01-30T11:59:50.469Z,998.14
2023-01-30T12:00:50.452Z,998.29
2023-01-30T12:01:50.455Z,998.25
2023-01-30T12:02:50.437Z,998.36
2023-01-30T12:03:50.423Z,998.23
2023-01-30T12:04:50.366Z,998.26
2023-01-30T12:05:50.352Z,998.14
2023-01-30T12:06:50.343Z,998.20
2023-01-30T12:07:50.306Z,998.18
2023-01-30T12:08:50.314Z,998.18
2023-01-30T12:09:50.306Z,998.15
2023-01-30T12:10:50.260Z,998.18
2023-01-30T12:11:50.225Z,998.17
2023-01-30T12:12:50.209Z,998.13
2023-01-30T12:13:50.190Z,998.31
2023-01-30T12:14:50.281Z,998.09
2023-01-30T12:15:50.150Z,998.20
2023-01-30T12:16:50.131Z,998.22
2023-01-30T12:17:50.111Z,998.21
2023-01-30T12:18:50.200Z,998.20
2023-01-30T12:19:50.226Z,998.49
2023-01-30T12:20:50.168Z,998.64
2023-01-30T12:21:50.026Z,998.52
2023-01-30T12:22:50.002Z,998.62
2023-01-30T12:23:50.013Z,998.78
2023-01-30T12:24:49.970Z,998.87